logo
Search for airport 
image banner adimage banner adimage banner ad
image banner ad

ZWWW - Urumqi/Diwopu

Located in Urumqi, China

ICAO - ZWWW, IATA - URC

Data provided by Airmate  

General information

Coordinates: N43°54'30" E87°28'30"
Elevation is 2125 feet MSL.
 
Rated:
View ratings:
[VIEW]
View others Airports in Xinjiang Autonomous Region

Operational data

Special qualification required
Current time UTC:
Current local time:
Weather
METAR: ZWWW 170630Z 33002MPS 300V040 5000 -RA BR BKN005 OVC020 13/11 Q1024 NOSIG
TAF: TAF ZWWW 170306Z 1706/1806 30004MPS 6000 -RA BKN020 TX19/1806Z TN11/1723Z BECMG 1708/1709 NSW BECMG 1713/1714 16003MPS BECMG 1803/1804 36004MPS
View NOTAMs / SUP AIP / TFR affecting this airport [VIEW]
Communications frequencies: [VIEW]

Runways:

RWY identifierQFULength (ft)Width (ft)SurfaceLDA (ft)
0774°11811148CON
25254°11811148CON

Airport contact information

Address: Urumqi China

Satellite view of ZWWW